sensor_id;sensor_type;location;lat;lon;timestamp;pressure;altitude;pressure_sealevel;temperature;humidity
75767;BME280;64378;55.596;13.014;2023-04-01T00:00:55;100072.63;;;19.82;36.92
75767;BME280;64378;55.596;13.014;2023-04-01T00:03:21;100069.59;;;19.78;36.77
75767;BME280;64378;55.596;13.014;2023-04-01T00:05:48;100081.38;;;19.79;36.78
75767;BME280;64378;55.596;13.014;2023-04-01T00:08:14;100079.44;;;19.79;36.72
75767;BME280;64378;55.596;13.014;2023-04-01T00:10:39;100075.91;;;19.79;36.94
75767;BME280;64378;55.596;13.014;2023-04-01T00:13:05;100079.72;;;19.78;36.82
75767;BME280;64378;55.596;13.014;2023-04-01T00:15:31;100085.75;;;19.80;36.79
75767;BME280;64378;55.596;13.014;2023-04-01T00:17:57;100080.53;;;19.78;36.69
75767;BME280;64378;55.596;13.014;2023-04-01T00:20:22;100074.25;;;19.78;36.67
75767;BME280;64378;55.596;13.014;2023-04-01T00:22:48;100084.91;;;19.79;36.49
75767;BME280;64378;55.596;13.014;2023-04-01T00:25:14;100086.84;;;19.79;36.50
75767;BME280;64378;55.596;13.014;2023-04-01T00:27:39;100085.22;;;19.78;36.61
75767;BME280;64378;55.596;13.014;2023-04-01T00:30:05;100080.00;;;19.76;36.38
75767;BME280;64378;55.596;13.014;2023-04-01T00:32:32;100083.56;;;19.72;36.56
75767;BME280;64378;55.596;13.014;2023-04-01T00:34:58;100085.75;;;19.75;36.66
75767;BME280;64378;55.596;13.014;2023-04-01T00:37:27;100082.47;;;19.73;36.45
75767;BME280;64378;55.596;13.014;2023-04-01T00:39:52;100078.66;;;19.74;36.40
75767;BME280;64378;55.596;13.014;2023-04-01T00:42:18;100080.84;;;19.72;36.23
75767;BME280;64378;55.596;13.014;2023-04-01T00:44:47;100084.41;;;19.72;36.64
75767;BME280;64378;55.596;13.014;2023-04-01T00:47:15;100087.41;;;19.71;36.52
75767;BME280;64378;55.596;13.014;2023-04-01T00:49:43;100093.97;;;19.70;36.25
75767;BME280;64378;55.596;13.014;2023-04-01T00:52:13;100088.50;;;19.70;36.46
75767;BME280;64378;55.596;13.014;2023-04-01T00:54:41;100093.44;;;19.68;36.50
75767;BME280;64378;55.596;13.014;2023-04-01T00:57:12;100097.25;;;19.72;36.50
75767;BME280;64378;55.596;13.014;2023-04-01T00:59:43;100096.47;;;19.71;36.32
75767;BME280;64378;55.596;13.014;2023-04-01T01:02:11;100097.25;;;19.72;36.39
75767;BME280;64378;55.596;13.014;2023-04-01T01:04:37;100099.19;;;19.71;36.51
75767;BME280;64378;55.596;13.014;2023-04-01T01:10:17;100110.94;;;19.72;36.34
75767;BME280;64378;55.596;13.014;2023-04-01T01:15:25;100108.22;;;19.72;36.20
75767;BME280;64378;55.596;13.014;2023-04-01T01:18:07;100105.75;;;19.70;36.34
75767;BME280;64378;55.596;13.014;2023-04-01T01:31:43;100110.16;;;19.62;36.05
75767;BME280;64378;55.596;13.014;2023-04-01T01:36:59;100120.00;;;19.63;36.07
75767;BME280;64378;55.596;13.014;2023-04-01T01:39:28;100123.53;;;19.68;36.23
75767;BME280;64378;55.596;13.014;2023-04-01T01:42:02;100133.41;;;19.69;35.98
75767;BME280;64378;55.596;13.014;2023-04-01T01:44:30;100134.50;;;19.68;36.23
75767;BME280;64378;55.596;13.014;2023-04-01T01:46:57;100129.31;;;19.66;35.94
75767;BME280;64378;55.596;13.014;2023-04-01T01:49:24;100135.59;;;19.67;36.17
75767;BME280;64378;55.596;13.014;2023-04-01T01:51:50;100143.00;;;19.66;36.21
75767;BME280;64378;55.596;13.014;2023-04-01T01:54:17;100137.22;;;19.68;36.17
75767;BME280;64378;55.596;13.014;2023-04-01T01:56:45;100138.06;;;19.68;36.10
75767;BME280;64378;55.596;13.014;2023-04-01T01:59:14;100141.06;;;19.67;35.99
75767;BME280;64378;55.596;13.014;2023-04-01T02:01:43;100141.59;;;19.64;36.02
75767;BME280;64378;55.596;13.014;2023-04-01T02:04:11;100143.53;;;19.63;36.04
75767;BME280;64378;55.596;13.014;2023-04-01T02:06:39;100146.28;;;19.63;36.35
75767;BME280;64378;55.596;13.014;2023-04-01T02:09:08;100141.59;;;19.64;35.94
75767;BME280;64378;55.596;13.014;2023-04-01T02:11:47;100147.91;;;19.64;35.91
75767;BME280;64378;55.596;13.014;2023-04-01T02:19:18;100161.34;;;19.61;35.99
75767;BME280;64378;55.596;13.014;2023-04-01T02:21:50;100164.88;;;19.62;35.98
75767;BME280;64378;55.596;13.014;2023-04-01T02:24:18;100155.88;;;19.61;35.99
75767;BME280;64378;55.596;13.014;2023-04-01T02:26:48;100167.63;;;19.62;35.85
75767;BME280;64378;55.596;13.014;2023-04-01T02:29:16;100166.53;;;19.63;35.97
75767;BME280;64378;55.596;13.014;2023-04-01T02:31:43;100164.59;;;19.63;35.88
75767;BME280;64378;55.596;13.014;2023-04-01T02:34:09;100168.47;;;19.62;36.00
75767;BME280;64378;55.596;13.014;2023-04-01T02:36:35;100173.94;;;19.62;35.96
75767;BME280;64378;55.596;13.014;2023-04-01T02:39:01;100175.53;;;19.63;35.88
75767;BME280;64378;55.596;13.014;2023-04-01T02:41:29;100172.81;;;19.63;36.32
75767;BME280;64378;55.596;13.014;2023-04-01T02:43:55;100184.31;;;19.65;35.83
75767;BME280;64378;55.596;13.014;2023-04-01T02:46:22;100178.81;;;19.65;35.78
75767;BME280;64378;55.596;13.014;2023-04-01T02:48:47;100185.13;;;19.65;35.83
75767;BME280;64378;55.596;13.014;2023-04-01T02:51:13;100182.94;;;19.63;35.98
75767;BME280;64378;55.596;13.014;2023-04-01T02:53:38;100184.31;;;19.60;35.89
75767;BME280;64378;55.596;13.014;2023-04-01T02:56:04;100192.25;;;19.62;35.91
75767;BME280;64378;55.596;13.014;2023-04-01T02:58:29;100187.88;;;19.61;35.88
75767;BME280;64378;55.596;13.014;2023-04-01T03:00:55;100197.19;;;19.60;35.78
75767;BME280;64378;55.596;13.014;2023-04-01T03:03:20;100202.38;;;19.61;35.62
75767;BME280;64378;55.596;13.014;2023-04-01T03:05:46;100208.13;;;19.60;35.91
75767;BME280;64378;55.596;13.014;2023-04-01T03:08:11;100207.31;;;19.59;35.74
75767;BME280;64378;55.596;13.014;2023-04-01T03:10:37;100203.75;;;19.59;36.00
75767;BME280;64378;55.596;13.014;2023-04-01T03:13:02;100206.47;;;19.59;35.90
75767;BME280;64378;55.596;13.014;2023-04-01T03:15:28;100212.78;;;19.59;35.89
75767;BME280;64378;55.596;13.014;2023-04-01T03:17:53;100222.09;;;19.58;35.97
75767;BME280;64378;55.596;13.014;2023-04-01T03:20:18;100215.25;;;19.61;35.96
75767;BME280;64378;55.596;13.014;2023-04-01T03:22:44;100217.97;;;19.61;36.04
75767;BME280;64378;55.596;13.014;2023-04-01T03:25:11;100222.63;;;19.60;35.87
75767;BME280;64378;55.596;13.014;2023-04-01T03:27:36;100217.44;;;19.59;35.96
75767;BME280;64378;55.596;13.014;2023-04-01T03:30:03;100218.50;;;19.58;36.06
75767;BME280;64378;55.596;13.014;2023-04-01T03:32:30;100220.44;;;19.57;35.54
75767;BME280;64378;55.596;13.014;2023-04-01T03:34:55;100221.00;;;19.59;35.63
75767;BME280;64378;55.596;13.014;2023-04-01T03:37:22;100228.66;;;19.57;35.87
75767;BME280;64378;55.596;13.014;2023-04-01T03:39:48;100226.19;;;19.56;35.62
75767;BME280;64378;55.596;13.014;2023-04-01T03:42:13;100228.66;;;19.57;35.96
75767;BME280;64378;55.596;13.014;2023-04-01T03:44:39;100233.03;;;19.58;35.84
75767;BME280;64378;55.596;13.014;2023-04-01T03:47:05;100231.41;;;19.57;35.85
75767;BME280;64378;55.596;13.014;2023-04-01T03:49:30;100239.84;;;19.56;35.55
75767;BME280;64378;55.596;13.014;2023-04-01T03:51:57;100244.53;;;19.55;35.91
75767;BME280;64378;55.596;13.014;2023-04-01T03:54:23;100253.00;;;19.54;35.76
75767;BME280;64378;55.596;13.014;2023-04-01T03:56:48;100259.31;;;19.54;36.01
75767;BME280;64378;55.596;13.014;2023-04-01T03:59:14;100259.00;;;19.56;35.64
75767;BME280;64378;55.596;13.014;2023-04-01T04:01:40;100263.69;;;19.55;35.55
75767;BME280;64378;55.596;13.014;2023-04-01T04:04:05;100273.53;;;19.56;35.70
75767;BME280;64378;55.596;13.014;2023-04-01T04:06:32;100271.06;;;19.55;35.63
75767;BME280;64378;55.596;13.014;2023-04-01T04:08:58;100279.25;;;19.55;35.55
75767;BME280;64378;55.596;13.014;2023-04-01T04:11:23;100272.16;;;19.54;35.41
75767;BME280;64378;55.596;13.014;2023-04-01T04:13:49;100275.72;;;19.54;35.46
75767;BME280;64378;55.596;13.014;2023-04-01T04:16:16;100281.44;;;19.53;35.66
75767;BME280;64378;55.596;13.014;2023-04-01T04:18:42;100288.56;;;19.54;35.32
75767;BME280;64378;55.596;13.014;2023-04-01T04:21:12;100292.94;;;19.55;35.44
75767;BME280;64378;55.596;13.014;2023-04-01T04:23:38;100288.56;;;19.54;35.20
75767;BME280;64378;55.596;13.014;2023-04-01T04:26:05;100295.97;;;19.53;35.63
75767;BME280;64378;55.596;13.014;2023-04-01T04:28:32;100295.97;;;19.53;35.57
75767;BME280;64378;55.596;13.014;2023-04-01T04:30:58;100306.06;;;19.53;35.49
75767;BME280;64378;55.596;13.014;2023-04-01T04:33:23;100297.06;;;19.52;35.59
75767;BME280;64378;55.596;13.014;2023-04-01T04:35:50;100299.78;;;19.52;35.46
75767;BME280;64378;55.596;13.014;2023-04-01T04:38:16;100299.25;;;19.50;35.25
75767;BME280;64378;55.596;13.014;2023-04-01T04:40:43;100298.69;;;19.48;35.22
75767;BME280;64378;55.596;13.014;2023-04-01T04:43:14;100305.53;;;19.51;35.65
75767;BME280;64378;55.596;13.014;2023-04-01T04:45:40;100309.91;;;19.52;35.18
75767;BME280;64378;55.596;13.014;2023-04-01T04:48:11;100309.91;;;19.47;35.55
75767;BME280;64378;55.596;13.014;2023-04-01T04:50:44;100314.31;;;19.48;35.07
75767;BME280;64378;55.596;13.014;2023-04-01T04:53:11;100313.75;;;19.46;35.19
75767;BME280;64378;55.596;13.014;2023-04-01T04:55:36;100312.09;;;19.40;35.32
75767;BME280;64378;55.596;13.014;2023-04-01T04:58:02;100336.19;;;19.48;35.25
75767;BME280;64378;55.596;13.014;2023-04-01T05:00:27;100337.00;;;19.48;35.32
75767;BME280;64378;55.596;13.014;2023-04-01T05:02:52;100339.19;;;19.46;35.16
75767;BME280;64378;55.596;13.014;2023-04-01T05:05:18;100354.78;;;19.46;35.16
75767;BME280;64378;55.596;13.014;2023-04-01T05:07:43;100356.13;;;19.43;35.24
75767;BME280;64378;55.596;13.014;2023-04-01T05:10:09;100359.72;;;19.44;35.28
75767;BME280;64378;55.596;13.014;2023-04-01T05:12:35;100366.53;;;19.46;35.10
75767;BME280;64378;55.596;13.014;2023-04-01T05:15:06;100365.72;;;19.46;35.12
75767;BME280;64378;55.596;13.014;2023-04-01T05:17:31;100363.00;;;19.46;35.43
75767;BME280;64378;55.596;13.014;2023-04-01T05:19:57;100364.09;;;19.45;35.02
75767;BME280;64378;55.596;13.014;2023-04-01T05:22:22;100365.72;;;19.46;35.25
75767;BME280;64378;55.596;13.014;2023-04-01T05:24:48;100373.09;;;19.45;35.02
75767;BME280;64378;55.596;13.014;2023-04-01T05:27:14;100376.69;;;19.46;35.40
75767;BME280;64378;55.596;13.014;2023-04-01T05:29:40;100383.78;;;19.47;35.17
75767;BME280;64378;55.596;13.014;2023-04-01T05:32:05;100377.47;;;19.46;35.07
75767;BME280;64378;55.596;13.014;2023-04-01T05:34:31;100378.31;;;19.47;35.31
75767;BME280;64378;55.596;13.014;2023-04-01T05:36:57;100382.72;;;19.48;35.16
75767;BME280;64378;55.596;13.014;2023-04-01T05:39:22;100387.34;;;19.47;35.13
75767;BME280;64378;55.596;13.014;2023-04-01T05:41:48;100398.28;;;19.47;35.06
75767;BME280;64378;55.596;13.014;2023-04-01T05:44:14;100389.81;;;19.49;34.97
75767;BME280;64378;55.596;13.014;2023-04-01T05:46:39;100393.91;;;19.46;35.21
75767;BME280;64378;55.596;13.014;2023-04-01T05:49:04;100404.03;;;19.46;35.18
75767;BME280;64378;55.596;13.014;2023-04-01T05:51:30;100412.25;;;19.46;34.88
75767;BME280;64378;55.596;13.014;2023-04-01T05:53:55;100415.78;;;19.46;34.89
75767;BME280;64378;55.596;13.014;2023-04-01T05:56:21;100405.91;;;19.40;35.14
75767;BME280;64378;55.596;13.014;2023-04-01T05:58:51;100419.63;;;19.45;35.10
75767;BME280;64378;55.596;13.014;2023-04-01T06:01:17;100415.25;;;19.44;34.69
75767;BME280;64378;55.596;13.014;2023-04-01T06:03:44;100427.03;;;19.45;34.62
75767;BME280;64378;55.596;13.014;2023-04-01T06:06:20;100427.28;;;19.43;34.61
75767;BME280;64378;55.596;13.014;2023-04-01T06:08:48;100427.56;;;19.42;34.60
75767;BME280;64378;55.596;13.014;2023-04-01T06:14:17;100430.53;;;19.40;34.17
75767;BME280;64378;55.596;13.014;2023-04-01T06:19:50;100432.75;;;19.43;33.98
75767;BME280;64378;55.596;13.014;2023-04-01T06:22:38;100434.66;;;19.43;34.27
75767;BME280;64378;55.596;13.014;2023-04-01T06:31:03;100442.56;;;19.39;33.67
75767;BME280;64378;55.596;13.014;2023-04-01T06:36:48;100445.88;;;19.41;33.49
75767;BME280;64378;55.596;13.014;2023-04-01T06:42:09;100457.66;;;19.42;33.37
75767;BME280;64378;55.596;13.014;2023-04-01T06:55:36;100468.38;;;19.53;33.17
75767;BME280;64378;55.596;13.014;2023-04-01T06:58:11;100473.56;;;19.55;33.11
75767;BME280;64378;55.596;13.014;2023-04-01T07:00:41;100473.03;;;19.58;33.00
75767;BME280;64378;55.596;13.014;2023-04-01T07:03:22;100476.34;;;19.60;32.64
75767;BME280;64378;55.596;13.014;2023-04-01T07:05:49;100470.59;;;19.61;32.79
75767;BME280;64378;55.596;13.014;2023-04-01T07:08:22;100481.56;;;19.66;32.89
75767;BME280;64378;55.596;13.014;2023-04-01T07:10:56;100481.31;;;19.72;33.48
75767;BME280;64378;55.596;13.014;2023-04-01T07:13:31;100494.22;;;19.77;33.90
75767;BME280;64378;55.596;13.014;2023-04-01T07:16:05;100486.81;;;19.82;33.91
75767;BME280;64378;55.596;13.014;2023-04-01T07:21:42;100488.78;;;19.97;34.04
75767;BME280;64378;55.596;13.014;2023-04-01T07:24:26;100492.41;;;20.02;33.97
75767;BME280;64378;55.596;13.014;2023-04-01T07:26:56;100490.22;;;20.09;34.84
75767;BME280;64378;55.596;13.014;2023-04-01T07:29:22;100499.28;;;20.15;34.63
75767;BME280;64378;55.596;13.014;2023-04-01T07:32:09;100499.59;;;20.23;34.36
75767;BME280;64378;55.596;13.014;2023-04-01T07:35:00;100506.72;;;20.29;34.54
75767;BME280;64378;55.596;13.014;2023-04-01T07:37:30;100503.72;;;20.36;34.52
75767;BME280;64378;55.596;13.014;2023-04-01T07:40:16;100510.28;;;20.40;34.32
75767;BME280;64378;55.596;13.014;2023-04-01T07:43:10;100520.47;;;20.44;34.23
75767;BME280;64378;55.596;13.014;2023-04-01T07:46:07;100523.22;;;20.49;34.63
75767;BME280;64378;55.596;13.014;2023-04-01T07:51:31;100534.47;;;20.58;34.60
75767;BME280;64378;55.596;13.014;2023-04-01T08:05:25;100545.72;;;20.71;33.65
75767;BME280;64378;55.596;13.014;2023-04-01T08:13:36;100548.47;;;20.81;34.16
75767;BME280;64378;55.596;13.014;2023-04-01T08:16:24;100549.03;;;20.83;33.62
75767;BME280;64378;55.596;13.014;2023-04-01T08:21:41;100559.47;;;20.86;33.90
75767;BME280;64378;55.596;13.014;2023-04-01T08:24:35;100567.44;;;20.87;33.44
75767;BME280;64378;55.596;13.014;2023-04-01T08:27:00;100575.66;;;20.87;33.28
75767;BME280;64378;55.596;13.014;2023-04-01T08:32:25;100581.69;;;20.89;33.26
75767;BME280;64378;55.596;13.014;2023-04-01T08:35:17;100588.00;;;20.90;33.11
75767;BME280;64378;55.596;13.014;2023-04-01T08:37:45;100585.25;;;20.90;32.76
75767;BME280;64378;55.596;13.014;2023-04-01T08:43:16;100593.19;;;20.91;32.99
75767;BME280;64378;55.596;13.014;2023-04-01T08:48:36;100599.50;;;20.92;33.33
75767;BME280;64378;55.596;13.014;2023-04-01T09:15:47;100627.78;;;21.02;32.51
75767;BME280;64378;55.596;13.014;2023-04-01T09:32:14;100655.47;;;21.06;32.37
75767;BME280;64378;55.596;13.014;2023-04-01T09:40:26;100656.84;;;21.03;32.03
75767;BME280;64378;55.596;13.014;2023-04-01T09:50:57;100673.59;;;21.07;31.85
75767;BME280;64378;55.596;13.014;2023-04-01T10:01:34;100686.22;;;21.08;31.23
75767;BME280;64378;55.596;13.014;2023-04-01T10:07:09;100692.53;;;21.08;31.08
75767;BME280;64378;55.596;13.014;2023-04-01T10:35:55;100695.81;;;21.20;39.46
75767;BME280;64378;55.596;13.014;2023-04-01T11:03:46;100713.41;;;21.29;38.71
75767;BME280;64378;55.596;13.014;2023-04-01T11:29:18;100742.78;;;21.34;36.54
75767;BME280;64378;55.596;13.014;2023-04-01T11:37:17;100748.25;;;21.34;35.39
75767;BME280;64378;55.596;13.014;2023-04-01T11:43:01;100755.41;;;21.35;35.30
75767;BME280;64378;55.596;13.014;2023-04-01T11:45:38;100757.34;;;21.34;34.81
75767;BME280;64378;55.596;13.014;2023-04-01T11:59:29;100761.75;;;21.35;34.88
75767;BME280;64378;55.596;13.014;2023-04-01T12:04:56;100765.28;;;21.36;35.02
75767;BME280;64378;55.596;13.014;2023-04-01T12:10:26;100762.53;;;21.36;34.17
75767;BME280;64378;55.596;13.014;2023-04-01T12:13:16;100773.53;;;21.36;34.12
75767;BME280;64378;55.596;13.014;2023-04-01T12:16:00;100767.50;;;21.39;36.14
75767;BME280;64378;55.596;13.014;2023-04-01T12:21:28;100778.19;;;21.45;36.42
75767;BME280;64378;55.596;13.014;2023-04-01T12:24:19;100774.91;;;21.48;36.65
75767;BME280;64378;55.596;13.014;2023-04-01T12:35:02;100780.47;;;21.58;36.37
75767;BME280;64378;55.596;13.014;2023-04-01T12:45:30;100790.91;;;21.66;36.67
75767;BME280;64378;55.596;13.014;2023-04-01T12:55:48;100806.28;;;21.72;36.74
75767;BME280;64378;55.596;13.014;2023-04-01T13:01:29;100816.72;;;21.75;36.70
75767;BME280;64378;55.596;13.014;2023-04-01T13:04:20;100818.38;;;21.76;36.58
75767;BME280;64378;55.596;13.014;2023-04-01T13:06:49;100813.72;;;21.77;36.24
75767;BME280;64378;55.596;13.014;2023-04-01T13:15:19;100822.78;;;21.77;36.09
75767;BME280;64378;55.596;13.014;2023-04-01T13:21:05;100827.72;;;21.75;35.66
75767;BME280;64378;55.596;13.014;2023-04-01T13:32:24;100842.53;;;21.74;35.68
75767;BME280;64378;55.596;13.014;2023-04-01T13:43:12;100854.91;;;21.72;35.71
75767;BME280;64378;55.596;13.014;2023-04-01T13:46:05;100861.22;;;21.72;35.27
75767;BME280;64378;55.596;13.014;2023-04-01T13:52:16;100873.28;;;21.71;35.21
75767;BME280;64378;55.596;13.014;2023-04-01T13:57:20;100875.22;;;21.71;35.29
75767;BME280;64378;55.596;13.014;2023-04-01T14:05:47;100886.47;;;21.69;35.38
75767;BME280;64378;55.596;13.014;2023-04-01T14:17:06;100899.38;;;21.69;34.99
75767;BME280;64378;55.596;13.014;2023-04-01T14:50:16;100919.69;;;21.63;35.00
75767;BME280;64378;55.596;13.014;2023-04-01T14:53:11;100923.53;;;21.62;34.58
75767;BME280;64378;55.596;13.014;2023-04-01T15:03:29;100937.78;;;21.59;33.86
75767;BME280;64378;55.596;13.014;2023-04-01T15:08:54;100949.84;;;21.58;34.36
75767;BME280;64378;55.596;13.014;2023-04-01T15:11:42;100955.31;;;21.58;34.32
75767;BME280;64378;55.596;13.014;2023-04-01T15:14:37;100962.75;;;21.57;34.33
75767;BME280;64378;55.596;13.014;2023-04-01T15:20:43;100964.94;;;21.55;34.06
75767;BME280;64378;55.596;13.014;2023-04-01T15:23:25;100969.59;;;21.55;33.99
75767;BME280;64378;55.596;13.014;2023-04-01T15:32:10;100983.31;;;21.55;34.22
75767;BME280;64378;55.596;13.014;2023-04-01T15:40:11;100995.69;;;21.52;33.64
75767;BME280;64378;55.596;13.014;2023-04-01T15:56:45;101006.06;;;21.45;33.39
75767;BME280;64378;55.596;13.014;2023-04-01T15:59:47;101010.19;;;21.43;33.57
75767;BME280;64378;55.596;13.014;2023-04-01T16:19:03;101047.22;;;21.35;33.08
75767;BME280;64378;55.596;13.014;2023-04-01T16:21:53;101052.69;;;21.35;33.04
75767;BME280;64378;55.596;13.014;2023-04-01T16:24:41;101056.53;;;21.34;32.96
75767;BME280;64378;55.596;13.014;2023-04-01T16:27:16;101060.38;;;21.33;32.78
75767;BME280;64378;55.596;13.014;2023-04-01T16:32:14;101060.38;;;21.33;33.03
75767;BME280;64378;55.596;13.014;2023-04-01T16:34:54;101063.06;;;21.28;32.54
75767;BME280;64378;55.596;13.014;2023-04-01T16:40:11;101081.19;;;21.29;33.02
75767;BME280;64378;55.596;13.014;2023-04-01T16:42:51;101089.44;;;21.29;32.82
75767;BME280;64378;55.596;13.014;2023-04-01T16:45:34;101092.44;;;21.28;32.87
75767;BME280;64378;55.596;13.014;2023-04-01T16:48:11;101097.09;;;21.27;32.89
75767;BME280;64378;55.596;13.014;2023-04-01T16:53:30;101104.75;;;21.25;32.52
75767;BME280;64378;55.596;13.014;2023-04-01T16:58:32;101117.91;;;21.23;32.68
75767;BME280;64378;55.596;13.014;2023-04-01T17:01:07;101127.00;;;21.24;32.77
75767;BME280;64378;55.596;13.014;2023-04-01T17:03:44;101133.56;;;21.23;32.33
75767;BME280;64378;55.596;13.014;2023-04-01T17:49:28;101219.91;;;21.10;32.09
75767;BME280;64378;55.596;13.014;2023-04-01T17:54:43;101234.72;;;21.09;31.99
75767;BME280;64378;55.596;13.014;2023-04-01T18:18:48;101281.03;;;21.06;31.87
75767;BME280;64378;55.596;13.014;2023-04-01T18:24:29;101295.00;;;21.04;31.89
75767;BME280;64378;55.596;13.014;2023-04-01T18:27:11;101305.16;;;21.04;31.95
75767;BME280;64378;55.596;13.014;2023-04-01T18:30:29;101307.06;;;21.03;31.99
75767;BME280;64378;55.596;13.014;2023-04-01T18:32:42;101315.31;;;21.03;31.76
75767;BME280;64378;55.596;13.014;2023-04-01T18:40:42;101339.44;;;21.01;31.91
75767;BME280;64378;55.596;13.014;2023-04-01T18:43:34;101349.31;;;21.02;31.95
75767;BME280;64378;55.596;13.014;2023-04-01T18:51:44;101361.38;;;21.01;31.92
75767;BME280;64378;55.596;13.014;2023-04-01T18:54:23;101367.94;;;21.00;31.87
75767;BME280;64378;55.596;13.014;2023-04-01T18:57:02;101372.34;;;21.01;31.90
75767;BME280;64378;55.596;13.014;2023-04-01T18:59:36;101375.38;;;21.00;31.80
75767;BME280;64378;55.596;13.014;2023-04-01T19:02:31;101383.31;;;21.01;31.81
75767;BME280;64378;55.596;13.014;2023-04-01T19:05:09;101386.34;;;21.00;31.72
75767;BME280;64378;55.596;13.014;2023-04-01T19:07:42;101389.09;;;21.00;31.84
75767;BME280;64378;55.596;13.014;2023-04-01T19:13:19;101398.13;;;21.00;32.07
75767;BME280;64378;55.596;13.014;2023-04-01T19:21:39;101415.66;;;20.99;31.71
75767;BME280;64378;55.596;13.014;2023-04-01T19:35:33;101436.81;;;20.99;31.48
75767;BME280;64378;55.596;13.014;2023-04-01T19:44:03;101460.06;;;20.96;31.02
75767;BME280;64378;55.596;13.014;2023-04-01T19:46:53;101465.56;;;20.96;31.32
75767;BME280;64378;55.596;13.014;2023-04-01T19:54:48;101482.03;;;20.96;31.17
75767;BME280;64378;55.596;13.014;2023-04-01T20:00:02;101492.19;;;20.96;31.24
75767;BME280;64378;55.596;13.014;2023-04-01T20:06:00;101497.66;;;20.96;31.03
75767;BME280;64378;55.596;13.014;2023-04-01T20:08:36;101507.78;;;20.95;31.14
75767;BME280;64378;55.596;13.014;2023-04-01T20:11:27;101512.47;;;20.95;31.06
75767;BME280;64378;55.596;13.014;2023-04-01T20:14:03;101517.09;;;20.94;31.20
75767;BME280;64378;55.596;13.014;2023-04-01T20:19:34;101524.75;;;20.92;31.07
75767;BME280;64378;55.596;13.014;2023-04-01T20:22:04;101530.81;;;20.94;30.88
75767;BME280;64378;55.596;13.014;2023-04-01T20:24:41;101539.06;;;20.94;30.84
75767;BME280;64378;55.596;13.014;2023-04-01T20:27:17;101542.66;;;20.95;30.96
75767;BME280;64378;55.596;13.014;2023-04-01T20:41:38;101581.06;;;20.95;30.77
75767;BME280;64378;55.596;13.014;2023-04-01T20:44:13;101587.34;;;20.95;30.60
75767;BME280;64378;55.596;13.014;2023-04-01T20:46:48;101588.44;;;20.94;30.77
75767;BME280;64378;55.596;13.014;2023-04-01T20:52:06;101585.97;;;20.93;30.70
75767;BME280;64378;55.596;13.014;2023-04-01T21:00:02;101592.25;;;20.93;30.67
75767;BME280;64378;55.596;13.014;2023-04-01T21:02:53;101598.00;;;20.92;30.79
75767;BME280;64378;55.596;13.014;2023-04-01T21:05:51;101595.84;;;20.94;30.80
75767;BME280;64378;55.596;13.014;2023-04-01T21:13:56;101614.22;;;20.93;30.64
75767;BME280;64378;55.596;13.014;2023-04-01T21:16:41;101604.31;;;20.92;30.53
75767;BME280;64378;55.596;13.014;2023-04-01T21:19:22;101607.06;;;20.92;30.64
75767;BME280;64378;55.596;13.014;2023-04-01T21:36:48;101648.47;;;20.91;30.54
75767;BME280;64378;55.596;13.014;2023-04-01T21:39:25;101648.22;;;20.92;30.67
75767;BME280;64378;55.596;13.014;2023-04-01T22:04:44;101671.16;;;20.86;30.20
75767;BME280;64378;55.596;13.014;2023-04-01T22:10:20;101677.75;;;20.85;30.50
75767;BME280;64378;55.596;13.014;2023-04-01T22:12:58;101676.88;;;20.85;30.65
75767;BME280;64378;55.596;13.014;2023-04-01T22:15:52;101683.44;;;20.84;30.64
75767;BME280;64378;55.596;13.014;2023-04-01T22:29:24;101686.59;;;20.76;30.61
75767;BME280;64378;55.596;13.014;2023-04-01T22:32:00;101699.72;;;20.74;30.39
75767;BME280;64378;55.596;13.014;2023-04-01T22:49:59;101725.63;;;20.55;29.81
75767;BME280;64378;55.596;13.014;2023-04-01T22:52:33;101726.97;;;20.53;29.77
75767;BME280;64378;55.596;13.014;2023-04-01T22:55:32;101729.97;;;20.51;29.79
75767;BME280;64378;55.596;13.014;2023-04-01T22:58:05;101735.69;;;20.50;29.77
75767;BME280;64378;55.596;13.014;2023-04-01T23:00:36;101737.81;;;20.48;29.72
75767;BME280;64378;55.596;13.014;2023-04-01T23:03:14;101738.31;;;20.45;29.65
75767;BME280;64378;55.596;13.014;2023-04-01T23:05:54;101737.50;;;20.44;29.92
75767;BME280;64378;55.596;13.014;2023-04-01T23:11:03;101753.34;;;20.42;29.74
75767;BME280;64378;55.596;13.014;2023-04-01T23:13:39;101747.28;;;20.40;29.86
75767;BME280;64378;55.596;13.014;2023-04-01T23:16:08;101758.22;;;20.40;29.65
75767;BME280;64378;55.596;13.014;2023-04-01T23:24:16;101768.88;;;20.37;29.67
75767;BME280;64378;55.596;13.014;2023-04-01T23:29:25;101780.31;;;20.34;29.77
75767;BME280;64378;55.596;13.014;2023-04-01T23:32:02;101779.47;;;20.33;29.82
75767;BME280;64378;55.596;13.014;2023-04-01T23:34:34;101786.88;;;20.33;29.63
75767;BME280;64378;55.596;13.014;2023-04-01T23:37:05;101790.69;;;20.32;29.81
75767;BME280;64378;55.596;13.014;2023-04-01T23:39:41;101790.69;;;20.32;29.61
75767;BME280;64378;55.596;13.014;2023-04-01T23:44:40;101796.63;;;20.29;30.29
75767;BME280;64378;55.596;13.014;2023-04-01T23:47:12;101798.31;;;20.30;29.69
75767;BME280;64378;55.596;13.014;2023-04-01T23:49:43;101800.44;;;20.28;29.99
75767;BME280;64378;55.596;13.014;2023-04-01T23:52:31;101799.59;;;20.27;29.65
75767;BME280;64378;55.596;13.014;2023-04-01T23:55:26;101804.25;;;20.27;29.66
75767;BME280;64378;55.596;13.014;2023-04-01T23:58:16;101805.34;;;20.26;29.94
